CDT,Max TemperatureF,Mean TemperatureF,Min TemperatureF,Max Dew PointF,MeanDew PointF,Min DewpointF,Max Humidity, Mean Humidity, Min Humidity, Max Sea Level PressureIn, Mean Sea Level PressureIn, Min Sea Level PressureIn, Max VisibilityMiles, Mean VisibilityMiles, Min VisibilityMiles, Max Wind SpeedMPH, Mean Wind SpeedMPH, Max Gust SpeedMPH,PrecipitationIn, CloudCover, Events, WindDirDegrees
2012-3-1,35,32,30,30,28,25,93,81,70,29.83,29.77,29.68,10,10,10,10,6,17,0.00,7,,299
2012-3-2,35,32,28,30,28,21,100,87,69,29.77,29.66,29.59,10,8,1,16,4,30,0.01,6,Snow,341
2012-3-3,30,26,23,25,19,16,86,77,69,29.85,29.72,29.61,10,8,1,15,11,29,0.00,8,Snow,292
2012-3-4,28,20,12,18,14,10,92,74,59,29.96,29.87,29.84,10,10,10,12,7,17,0.00,4,,309
2012-3-5,33,24,15,21,17,12,93,76,60,30.27,30.19,30.10,10,10,10,16,6,23,0.00,1,,209
2012-3-6,66,48,30,43,33,23,80,62,42,29.98,29.78,29.68,10,10,10,18,11,29,0.00,0,,178
2012-3-7,60,48,33,52,41,30,93,73,54,29.85,29.72,29.64,10,9,4,18,14,30,0.00,6,Rain,211
2012-3-8,37,30,24,27,21,18,86,66,45,30.22,30.13,29.94,10,10,10,20,10,29,0.00,3,,287
2012-3-9,35,27,19,16,7,3,58,43,26,30.59,30.48,30.32,10,10,10,20,10,28,0.00,0,,323
2012-3-10,62,46,30,28,24,16,60,42,24,30.31,30.15,30.06,10,10,10,23,15,36,0.00,0,,202
2012-3-11,62,52,41,48,32,28,94,48,27,30.13,30.04,29.82,10,10,5,15,9,24,0.16,2,Rain,172
2012-3-12,57,52,48,48,45,41,100,81,55,29.86,29.76,29.72,10,9,2,18,11,25,0.16,7,Rain,213
2012-3-13,71,54,37,43,34,21,93,59,15,30.10,30.03,29.92,10,10,7,10,4,,0.00,0,,208
2012-3-14,78,66,55,61,53,39,78,64,47,29.95,29.88,29.84,10,10,10,15,10,26,0.00,3,,179
2012-3-15,78,64,50,57,49,37,100,66,23,30.02,29.97,29.91,10,7,0,8,2,,0.00,0,Fog,261
2012-3-16,84,70,55,63,54,46,77,61,40,30.01,29.97,29.91,10,10,7,13,5,21,0.00,2,,159
2012-3-17,84,74,64,63,58,52,88,62,33,29.96,29.92,29.86,10,10,10,23,12,31,0.00,2,,176
2012-3-18,84,74,64,59,57,54,77,57,37,29.93,29.89,29.83,10,10,10,22,12,33,0.00,5,,170
2012-3-19,78,71,64,64,61,59,94,71,54,29.88,29.83,29.75,10,10,7,20,11,33,0.19,3,Rain,152
2012-3-20,75,68,62,63,58,54,100,69,50,29.97,29.90,29.84,10,10,5,14,5,18,0.00,6,,169
2012-3-21,73,68,64,61,59,57,88,72,57,30.06,30.02,29.96,10,10,10,12,6,,0.00,3,Rain,188
2012-3-22,78,70,62,64,60,57,94,75,47,30.08,30.04,30.00,10,10,3,13,8,23,0.20,6,Rain,104
2012-3-23,73,66,60,61,58,52,100,81,47,30.00,29.94,29.86,10,8,2,13,3,18,0.46,6,Rain,43
2012-3-24,69,66,62,61,60,57,94,85,64,29.98,29.92,29.86,10,6,1,9,4,,0.00,8,,1
2012-3-25,69,62,55,57,52,39,100,77,33,30.15,30.10,30.03,10,7,2,12,4,,0.00,2,,339
2012-3-26,57,49,41,45,34,28,93,67,33,30.34,30.25,30.05,10,10,10,29,13,37,0.22,7,Rain,100
2012-3-27,80,62,44,57,38,18,71,51,10,30.05,29.85,29.71,10,10,10,22,16,34,0.00,2,,184
2012-3-28,62,55,48,43,39,37,71,55,39,30.08,30.00,29.86,10,10,10,16,9,24,0.00,1,,315
2012-3-29,62,52,42,39,38,36,81,59,39,30.12,30.02,29.88,10,10,10,17,8,23,0.00,1,Rain,106
2012-3-30,51,46,42,46,43,39,100,89,71,29.87,29.82,29.76,10,7,1,14,8,21,0.40,8,Rain,63
2012-3-31,51,48,44,46,44,43,100,88,76,29.95,29.89,29.80,10,5,1,12,8,18,0.00,7,,131